Time;durP1;ratioP1;P1;durP2;ratioP2;P2;SDS_P1;SDS_P2;PMS_P1;PMS_P2;Temp;Humidity;BMP_temperature;BMP_pressure;BME280_temperature;BME280_humidity;BME280_pressure;Samples;Min_cycle;Max_cycle;Signal;HPM_P1;HPM_P2
2021/10/26 00:00:56;;;;;;;19.30;10.30;;;;;;;2.22;58.65;101031.46;116222;1204;22940;-63
2021/10/26 00:03:24;;;;;;;23.70;11.80;;;;;;;2.25;58.74;101028.61;116178;1203;138422;-63
2021/10/26 00:05:52;;;;;;;25.80;11.80;;;;;;;2.26;58.72;101024.41;116662;1203;22321;-62
2021/10/26 00:08:20;;;;;;;26.30;11.50;;;;;;;2.26;58.79;101024.24;116509;1202;23054;-62
2021/10/26 00:10:48;;;;;;;21.00;11.70;;;;;;;2.26;58.71;101020.45;116356;1202;137668;-63
2021/10/26 00:13:17;;;;;;;24.80;11.10;;;;;;;2.26;58.80;101019.20;116399;1203;22324;-62
2021/10/26 00:15:46;;;;;;;21.50;10.70;;;;;;;2.26;59.04;101019.98;116042;1204;137900;-62
2021/10/26 00:18:15;;;;;;;25.50;11.60;;;;;;;2.24;58.96;101014.73;116354;1203;23017;-62
2021/10/26 00:20:43;;;;;;;22.20;10.60;;;;;;;2.23;58.99;101013.11;116386;1202;22318;-63
2021/10/26 00:23:12;;;;;;;21.60;10.90;;;;;;;2.23;59.03;101008.03;116272;1202;137476;-62
2021/10/26 00:25:40;;;;;;;25.20;11.00;;;;;;;2.20;59.05;100999.25;116321;1203;22377;-62
2021/10/26 00:28:10;;;;;;;25.40;11.60;;;;;;;2.18;59.23;100996.09;116136;1203;137600;-62
2021/10/26 00:30:38;;;;;;;26.10;12.70;;;;;;;2.17;59.26;100997.84;116282;1203;22629;-62
2021/10/26 00:33:06;;;;;;;22.50;11.40;;;;;;;2.15;59.39;100990.34;116146;1203;137677;-62
2021/10/26 00:35:37;;;;;;;22.80;11.00;;;;;;;2.17;59.45;100994.05;116179;1203;23129;-62
2021/10/26 00:38:05;;;;;;;22.30;10.00;;;;;;;2.18;59.38;100999.45;116305;1203;22304;-62
2021/10/26 00:40:34;;;;;;;22.90;10.70;;;;;;;2.19;59.47;100992.73;116133;1203;139640;-59
2021/10/26 00:43:02;;;;;;;22.60;11.20;;;;;;;2.20;59.52;100992.27;116226;1203;22354;-59
2021/10/26 00:45:30;;;;;;;21.10;10.40;;;;;;;2.19;59.49;100987.31;116153;1203;137963;-59
2021/10/26 00:47:58;;;;;;;23.40;10.60;;;;;;;2.20;59.57;100980.96;116221;1203;23103;-59
2021/10/26 00:50:27;;;;;;;22.40;10.90;;;;;;;2.20;59.61;100978.31;116150;1203;22268;-59
2021/10/26 00:52:56;;;;;;;21.20;10.60;;;;;;;2.19;59.63;100974.81;116179;1203;138305;-59
2021/10/26 00:55:24;;;;;;;23.40;10.90;;;;;;;2.19;59.67;100974.67;116218;1203;22312;-59
2021/10/26 00:57:52;;;;;;;19.10;10.50;;;;;;;2.20;59.65;100978.84;116162;1203;137403;-59
2021/10/26 01:00:20;;;;;;;26.60;11.40;;;;;;;2.20;59.58;100975.02;116184;1204;23011;-59
2021/10/26 01:02:49;;;;;;;24.00;11.20;;;;;;;2.21;59.60;100974.11;116210;1203;22387;-59
2021/10/26 01:05:26;;;;;;;31.40;11.40;;;;;;;2.21;59.68;100977.34;116219;1203;137867;-59
2021/10/26 01:07:54;;;;;;;27.10;12.10;;;;;;;2.16;59.57;100968.12;115991;1204;22296;-59
2021/10/26 01:10:23;;;;;;;25.90;11.00;;;;;;;2.16;59.56;100973.14;116014;1190;137211;-59
2021/10/26 01:12:51;;;;;;;20.20;10.80;;;;;;;2.14;59.68;100973.02;116304;1202;22241;-59
2021/10/26 01:15:20;;;;;;;37.80;12.60;;;;;;;2.14;59.75;100972.34;116131;1203;138844;-59
2021/10/26 01:17:48;;;;;;;23.70;11.40;;;;;;;2.14;59.68;100974.83;116340;1203;22979;-58
2021/10/26 01:20:16;;;;;;;26.40;11.10;;;;;;;2.15;59.74;100977.05;116208;1202;22272;-59
2021/10/26 01:22:44;;;;;;;24.50;11.40;;;;;;;2.15;59.71;100974.40;116451;1201;138004;-59
2021/10/26 01:25:13;;;;;;;25.30;11.80;;;;;;;2.14;59.83;100976.21;116243;1204;23306;-59
2021/10/26 01:27:52;;;;;;;26.80;11.40;;;;;;;2.13;59.91;100968.34;116139;1203;137626;-59
2021/10/26 01:30:26;;;;;;;32.10;11.20;;;;;;;2.11;59.79;100966.73;116182;1203;22393;-59
2021/10/26 01:32:56;;;;;;;26.50;12.20;;;;;;;2.07;59.82;100963.36;116328;1203;22433;-59
2021/10/26 01:35:37;;;;;;;28.20;12.50;;;;;;;2.06;59.93;100964.90;116093;1203;137056;-59
2021/10/26 01:38:06;;;;;;;27.20;11.80;;;;;;;2.03;60.08;100958.85;116183;1202;22351;-59
2021/10/26 01:40:35;;;;;;;30.90;11.70;;;;;;;2.00;60.14;100959.91;116043;1203;137620;-60
2021/10/26 01:43:04;;;;;;;27.10;12.10;;;;;;;1.96;60.09;100964.10;116354;1202;22370;-59
2021/10/26 01:45:33;;;;;;;31.40;13.60;;;;;;;1.92;60.23;100960.42;116105;1203;137546;-59
2021/10/26 01:48:10;;;;;;;25.50;12.20;;;;;;;1.89;60.35;100957.73;116177;1203;22432;-59
2021/10/26 01:50:38;;;;;;;23.70;12.90;;;;;;;1.85;60.50;100957.45;116330;1202;22344;-59
2021/10/26 01:53:07;;;;;;;29.20;13.00;;;;;;;1.81;60.53;100961.02;116222;1202;138873;-59
2021/10/26 01:55:35;;;;;;;29.20;12.50;;;;;;;1.79;60.59;100959.48;116132;1204;22400;-59
2021/10/26 01:58:03;;;;;;;28.90;13.30;;;;;;;1.76;60.69;100955.07;116138;1203;137805;-59
2021/10/26 02:00:49;;;;;;;25.70;13.30;;;;;;;1.76;60.86;100959.40;116548;1203;22291;-59
2021/10/26 02:03:18;;;;;;;30.30;14.30;;;;;;;1.76;60.78;100958.55;116457;1202;137786;-59
2021/10/26 02:05:46;;;;;;;31.00;14.20;;;;;;;1.74;60.89;100960.13;116243;1203;22277;-59
2021/10/26 02:08:14;;;;;;;35.70;15.20;;;;;;;1.70;60.89;100956.70;116131;1204;22329;-59
2021/10/26 02:10:42;;;;;;;28.00;13.90;;;;;;;1.66;60.89;100955.70;116100;1203;138317;-59
2021/10/26 02:13:10;;;;;;;24.90;12.70;;;;;;;1.64;61.07;100959.45;116197;1204;22321;-59
2021/10/26 02:15:40;;;;;;;26.30;11.50;;;;;;;1.61;61.26;100955.64;116086;1190;138322;-59
2021/10/26 02:18:08;;;;;;;26.10;12.60;;;;;;;1.58;61.24;100958.04;116203;1196;22355;-59
2021/10/26 02:20:36;;;;;;;30.60;14.30;;;;;;;1.54;61.32;100951.98;116147;1204;22801;-59
2021/10/26 02:23:05;;;;;;;24.50;12.50;;;;;;;1.51;61.39;100956.07;116147;1203;138968;-59
2021/10/26 02:25:33;;;;;;;24.60;13.20;;;;;;;1.49;61.46;100951.83;116290;1203;23276;-59
2021/10/26 02:28:01;;;;;;;29.90;13.70;;;;;;;1.48;61.57;100948.66;116151;1203;137837;-59
2021/10/26 02:30:30;;;;;;;30.70;14.40;;;;;;;1.47;61.70;100945.04;116250;1202;22285;-59
2021/10/26 02:32:58;;;;;;;26.80;12.60;;;;;;;1.46;61.77;100941.98;116257;1203;23238;-59
2021/10/26 02:35:27;;;;;;;26.90;12.20;;;;;;;1.44;61.78;100937.29;116119;1203;138754;-59
2021/10/26 02:37:55;;;;;;;28.00;13.20;;;;;;;1.43;61.80;100937.60;116313;1202;22163;-59
2021/10/26 02:40:24;;;;;;;24.90;11.90;;;;;;;1.43;62.04;100933.90;116045;1203;138464;-62
2021/10/26 02:42:52;;;;;;;27.40;11.50;;;;;;;1.43;62.11;100936.22;116252;1204;22352;-62
2021/10/26 02:45:22;;;;;;;27.50;12.80;;;;;;;1.42;62.04;100931.75;116063;1204;137702;-62
2021/10/26 02:47:50;;;;;;;22.80;12.30;;;;;;;1.43;62.09;100926.38;116290;1203;23158;-62
2021/10/26 02:50:19;;;;;;;21.40;11.30;;;;;;;1.43;62.29;100925.28;116245;1203;22286;-62
2021/10/26 02:52:48;;;;;;;22.30;11.10;;;;;;;1.44;62.28;100927.86;116108;1196;138005;-62
2021/10/26 02:55:16;;;;;;;24.50;11.90;;;;;;;1.45;62.27;100929.48;116284;1203;23053;-62
2021/10/26 02:57:46;;;;;;;39.70;14.60;;;;;;;1.46;62.21;100924.39;116141;1203;138734;-62
2021/10/26 03:00:14;;;;;;;24.30;12.30;;;;;;;1.47;62.26;100922.71;116251;1203;22295;-62
2021/10/26 03:02:42;;;;;;;25.60;12.90;;;;;;;1.48;62.38;100923.12;116267;1203;22328;-62
2021/10/26 03:05:10;;;;;;;23.90;11.90;;;;;;;1.48;62.20;100921.14;116087;1203;138624;-62
2021/10/26 03:07:42;;;;;;;26.00;12.20;;;;;;;1.48;62.30;100921.68;116135;1204;22346;-62
2021/10/26 03:10:10;;;;;;;25.80;12.40;;;;;;;1.48;62.31;100920.94;116281;1203;138304;-61
2021/10/26 03:12:38;;;;;;;21.00;12.40;;;;;;;1.49;62.22;100916.34;116200;1202;22339;-61
2021/10/26 03:15:07;;;;;;;24.40;12.50;;;;;;;1.50;62.15;100911.41;116234;1203;23226;-61
2021/10/26 03:17:35;;;;;;;24.70;12.90;;;;;;;1.53;62.36;100915.08;116214;1203;137571;-62
2021/10/26 03:20:11;;;;;;;27.50;13.20;;;;;;;1.54;62.14;100913.48;116193;1203;22314;-62
2021/10/26 03:22:40;;;;;;;26.00;12.00;;;;;;;1.55;62.13;100912.47;116233;1203;137625;-62
2021/10/26 03:25:08;;;;;;;24.60;11.50;;;;;;;1.54;62.19;100909.30;116222;1197;23282;-62
2021/10/26 03:27:37;;;;;;;21.40;11.60;;;;;;;1.54;62.19;100912.20;116117;1203;137966;-62
2021/10/26 03:30:11;;;;;;;27.50;12.00;;;;;;;1.54;62.22;100904.23;116250;1203;22360;-62
2021/10/26 03:32:40;;;;;;;27.60;11.90;;;;;;;1.56;62.34;100905.59;116233;1203;22276;-62
2021/10/26 03:35:27;;;;;;;18.40;10.80;;;;;;;1.56;62.26;100902.34;116145;1203;137429;-63
2021/10/26 03:37:55;;;;;;;26.40;11.40;;;;;;;1.57;62.15;100900.09;116200;1203;22339;-62
2021/10/26 03:40:23;;;;;;;23.60;10.60;;;;;;;1.57;62.19;100898.84;116090;1197;139011;-63
2021/10/26 03:42:52;;;;;;;22.10;10.60;;;;;;;1.57;62.25;100897.47;116232;1203;22250;-62
2021/10/26 03:45:21;;;;;;;23.40;10.30;;;;;;;1.57;62.28;100899.95;116150;1204;138380;-62
2021/10/26 03:47:49;;;;;;;20.90;9.90;;;;;;;1.58;62.35;100897.46;116196;1204;22249;-62
2021/10/26 03:50:17;;;;;;;23.60;11.40;;;;;;;1.60;62.45;100892.41;116359;1203;22350;-62
2021/10/26 03:52:45;;;;;;;21.10;10.60;;;;;;;1.63;62.42;100894.94;116111;1197;137398;-62
2021/10/26 03:55:13;;;;;;;25.90;11.80;;;;;;;1.64;62.33;100894.30;116208;1190;22272;-62
2021/10/26 03:57:44;;;;;;;27.00;11.70;;;;;;;1.64;62.11;100891.05;116174;1202;138057;-62
2021/10/26 04:00:12;;;;;;;25.60;11.20;;;;;;;1.65;62.26;100889.04;116234;1203;22301;-62
2021/10/26 04:02:55;;;;;;;19.10;10.50;;;;;;;1.66;62.29;100887.09;116167;1203;23982;-61
2021/10/26 04:08:28;;;;;;;19.10;9.80;;;;;;;1.68;62.26;100886.86;116247;1203;23170;-62
2021/10/26 04:11:50;;;;;;;17.90;10.50;;;;;;;1.70;62.05;100889.16;116102;1203;137669;-62
2021/10/26 04:13:48;;;;;;;22.90;11.30;;;;;;;1.72;62.19;100891.14;116151;1204;22315;-62
2021/10/26 04:16:18;;;;;;;25.00;10.80;;;;;;;1.72;62.01;100890.43;116108;1203;150332;-62
2021/10/26 04:18:46;;;;;;;24.10;12.40;;;;;;;1.71;62.14;100887.64;116305;1203;23032;-62
2021/10/26 04:21:16;;;;;;;31.20;15.20;;;;;;;1.71;61.99;100886.73;116144;1203;137544;-62
2021/10/26 04:23:47;;;;;;;30.40;13.60;;;;;;;1.69;62.10;100889.11;116597;1201;23029;-62
2021/10/26 04:26:16;;;;;;;34.10;15.00;;;;;;;1.67;62.12;100891.80;116730;1201;23424;-62
2021/10/26 04:28:45;;;;;;;23.60;13.00;;;;;;;1.64;62.13;100889.77;116412;1201;138109;-62
2021/10/26 04:31:15;;;;;;;27.60;12.10;;;;;;;1.62;62.27;100889.20;116623;1200;22385;-62
2021/10/26 04:33:44;;;;;;;22.40;11.60;;;;;;;1.60;62.23;100892.45;116510;1187;138502;-62
2021/10/26 04:36:12;;;;;;;25.80;14.60;;;;;;;1.59;62.23;100891.08;116493;1201;22333;-62
2021/10/26 04:38:41;;;;;;;23.80;12.20;;;;;;;1.58;62.35;100892.50;116527;1202;22308;-62
2021/10/26 04:41:11;;;;;;;24.70;12.60;;;;;;;1.56;62.40;100893.06;116509;1201;138540;-62
2021/10/26 04:43:40;;;;;;;22.20;12.60;;;;;;;1.54;62.39;100891.85;116586;1200;22319;-62
2021/10/26 04:46:12;;;;;;;21.80;12.10;;;;;;;1.51;62.55;100894.83;116401;1201;137842;-62
2021/10/26 04:48:41;;;;;;;20.30;10.60;;;;;;;1.50;62.76;100896.70;116489;1201;22228;-62
2021/10/26 04:51:09;;;;;;;23.40;11.90;;;;;;;1.50;62.56;100901.80;116543;1201;22382;-65
2021/10/26 04:53:39;;;;;;;24.10;12.40;;;;;;;1.49;62.79;100903.45;116327;1201;136934;-65
2021/10/26 04:56:08;;;;;;;28.00;11.80;;;;;;;1.47;62.81;100900.63;116479;1195;22327;-65
2021/10/26 04:58:58;;;;;;;21.70;11.70;;;;;;;1.45;62.98;100905.15;116314;1201;137307;-62
2021/10/26 05:01:26;;;;;;;23.20;12.30;;;;;;;1.44;62.96;100903.65;116484;1201;22332;-62
2021/10/26 05:03:55;;;;;;;28.70;12.00;;;;;;;1.44;62.94;100904.90;116473;1201;138329;-62
2021/10/26 05:06:24;;;;;;;23.10;11.80;;;;;;;1.45;63.13;100907.50;116545;1201;24010;-62
2021/10/26 05:08:53;;;;;;;20.50;10.60;;;;;;;1.46;63.05;100908.58;116469;1201;22253;-62
2021/10/26 05:11:21;;;;;;;19.20;10.70;;;;;;;1.49;63.11;100906.91;116525;1201;138103;-63
2021/10/26 05:13:50;;;;;;;19.80;10.50;;;;;;;1.52;63.21;100905.98;116645;1201;22833;-62
2021/10/26 05:16:26;;;;;;;21.20;11.60;;;;;;;1.56;63.17;100907.55;116485;1201;138051;-62
2021/10/26 05:19:15;;;;;;;23.10;10.60;;;;;;;1.59;63.07;100910.95;116619;1201;22325;-62
2021/10/26 05:22:24;;;;;;;21.90;12.20;;;;;;;1.65;63.06;100905.59;116420;1201;138808;-62
2021/10/26 05:25:21;;;;;;;25.00;12.80;;;;;;;1.69;63.08;100908.22;116481;1200;22719;-62
2021/10/26 05:28:09;;;;;;;25.20;11.60;;;;;;;1.73;63.05;100906.00;116512;1201;137724;-62
2021/10/26 05:30:37;;;;;;;18.20;10.40;;;;;;;1.77;62.89;100909.30;116618;1201;22345;-62
2021/10/26 05:33:05;;;;;;;24.70;12.20;;;;;;;1.82;62.76;100906.52;116504;1201;22385;-62
2021/10/26 05:35:33;;;;;;;20.90;11.20;;;;;;;1.87;62.92;100908.52;116514;1200;137965;-62
2021/10/26 05:38:01;;;;;;;21.50;10.80;;;;;;;1.92;62.66;100910.80;116566;1201;22425;-62
2021/10/26 05:40:29;;;;;;;27.60;11.60;;;;;;;1.97;62.48;100913.10;113999;1201;137561;-56
2021/10/26 05:42:57;;;;;;;28.10;11.90;;;;;;;2.03;62.63;100914.17;111938;1201;24763;-62
2021/10/26 05:45:26;;;;;;;22.90;12.50;;;;;;;2.09;62.46;100916.72;112160;1185;138124;-61
2021/10/26 05:47:54;;;;;;;20.80;11.80;;;;;;;2.14;62.33;100914.58;116545;1197;23190;-62
2021/10/26 05:50:22;;;;;;;20.00;10.80;;;;;;;2.18;62.37;100915.59;116556;1200;22344;-61
2021/10/26 05:52:51;;;;;;;25.00;10.90;;;;;;;2.24;62.27;100913.35;116351;1201;138091;-61
2021/10/26 05:55:19;;;;;;;24.50;11.10;;;;;;;2.29;62.10;100911.30;116606;1201;22258;-62
2021/10/26 05:57:47;;;;;;;25.10;11.40;;;;;;;2.33;62.24;100915.11;116527;1200;137699;-62
2021/10/26 06:00:15;;;;;;;25.10;10.30;;;;;;;2.38;62.12;100918.16;116582;1201;23906;-62
2021/10/26 06:02:43;;;;;;;25.10;11.40;;;;;;;2.43;62.04;100919.91;116561;1201;22444;-62
2021/10/26 06:05:12;;;;;;;31.40;11.00;;;;;;;2.51;61.92;100919.98;116498;1195;137926;-62
2021/10/26 06:07:40;;;;;;;21.30;11.30;;;;;;;2.59;61.68;100923.90;116647;1200;22321;-62
2021/10/26 06:10:09;;;;;;;47.20;11.50;;;;;;;2.67;61.40;100925.00;116368;1201;137163;-61
2021/10/26 06:12:51;;;;;;;24.80;12.30;;;;;;;2.75;61.27;100927.84;116656;1200;22873;-61
2021/10/26 06:15:19;;;;;;;20.80;10.90;;;;;;;2.78;61.24;100925.43;116574;1200;137190;-61
2021/10/26 06:17:47;;;;;;;21.30;10.80;;;;;;;2.85;61.23;100926.02;116522;1201;22336;-61
2021/10/26 06:20:16;;;;;;;24.70;11.70;;;;;;;2.92;61.21;100929.08;116535;1201;23094;-61
2021/10/26 06:22:44;;;;;;;32.50;11.90;;;;;;;2.97;60.97;100929.48;116451;1201;137376;-61
2021/10/26 06:25:12;;;;;;;22.70;11.30;;;;;;;3.02;60.93;100933.06;116504;1201;22738;-61
2021/10/26 06:28:21;;;;;;;23.70;10.60;;;;;;;3.10;60.91;100931.20;116358;1201;138653;-61
2021/10/26 06:30:49;;;;;;;19.40;11.20;;;;;;;3.17;60.91;100932.19;116627;1201;22159;-61
2021/10/26 06:33:20;;;;;;;24.90;12.40;;;;;;;3.23;60.68;100922.66;116422;1201;137555;-61
2021/10/26 06:35:54;;;;;;;24.40;10.90;;;;;;;3.33;60.65;100924.92;116644;1200;22360;-62
2021/10/26 06:38:22;;;;;;;22.90;10.90;;;;;;;3.41;60.46;100925.29;116651;1197;23003;-62
2021/10/26 06:40:51;;;;;;;21.70;12.20;;;;;;;3.48;60.30;100922.77;113304;1201;138345;-62
2021/10/26 06:43:44;;;;;;;23.60;11.00;;;;;;;3.59;60.25;100922.11;112235;1201;24133;-61
2021/10/26 06:46:32;;;;;;;24.70;11.70;;;;;;;3.67;60.03;100918.49;112087;1201;137532;-61
2021/10/26 06:49:18;;;;;;;24.30;11.20;;;;;;;3.74;59.93;100917.05;112305;1201;25831;-61
2021/10/26 06:52:16;;;;;;;24.80;11.60;;;;;;;3.83;59.82;100913.96;112000;1195;137147;-63
2021/10/26 06:55:07;;;;;;;20.60;11.70;;;;;;;3.92;59.85;100909.67;112145;1197;22442;-60
2021/10/26 06:57:54;;;;;;;20.40;11.70;;;;;;;4.01;59.89;100908.88;116524;1201;137435;-61
2021/10/26 07:00:53;;;;;;;25.90;10.80;;;;;;;4.09;59.64;100904.06;116610;1201;23377;-61
2021/10/26 07:03:24;;;;;;;17.40;9.90;;;;;;;4.17;59.59;100904.61;116364;1201;137809;-61
2021/10/26 07:06:09;;;;;;;23.30;9.80;;;;;;;4.27;59.49;100903.44;116580;1201;22311;-60
2021/10/26 07:08:39;;;;;;;19.20;9.40;;;;;;;4.36;59.70;100902.87;116528;1187;22399;-61
2021/10/26 07:11:26;;;;;;;18.60;9.60;;;;;;;4.47;59.23;100901.71;116438;1201;137140;-61
2021/10/26 07:13:55;;;;;;;17.00;9.90;;;;;;;4.57;59.45;100899.26;116517;1201;22319;-61
2021/10/26 07:16:23;;;;;;;16.20;9.70;;;;;;;4.66;59.38;100897.73;116320;1201;137114;-61
2021/10/26 07:18:52;;;;;;;16.70;10.10;;;;;;;4.77;59.46;100891.73;116544;1201;22311;-60
2021/10/26 07:21:20;;;;;;;15.30;9.30;;;;;;;4.88;59.19;100887.90;116462;1201;137649;-60
2021/10/26 07:24:21;;;;;;;17.90;8.60;;;;;;;4.99;58.99;100883.30;116403;1201;22261;-60
2021/10/26 07:26:57;;;;;;;19.40;9.80;;;;;;;5.06;58.83;100883.30;116587;1201;22373;-61
2021/10/26 07:29:25;;;;;;;16.70;9.10;;;;;;;5.16;58.42;100883.44;116438;1201;137152;-61
2021/10/26 07:31:56;;;;;;;25.10;9.50;;;;;;;5.25;58.46;100880.71;116706;1201;22493;-61
2021/10/26 07:34:24;;;;;;;13.60;8.70;;;;;;;5.35;58.53;100873.02;116445;1201;136870;-61
2021/10/26 07:36:53;;;;;;;21.60;10.30;;;;;;;5.45;58.30;100873.04;116372;1201;23073;-62
2021/10/26 07:41:56;;;;;;;20.70;9.60;;;;;;;5.65;57.80;100865.42;116368;1201;23076;-61
2021/10/26 07:44:44;;;;;;;15.60;8.10;;;;;;;5.75;57.38;100862.36;116420;1196;22294;-61
2021/10/26 07:47:21;;;;;;;18.60;7.90;;;;;;;5.85;57.25;100854.97;116197;1197;138143;-61
2021/10/26 07:49:51;;;;;;;16.00;8.50;;;;;;;5.93;57.17;100855.21;116427;1201;23159;-61
2021/10/26 07:52:22;;;;;;;16.10;7.90;;;;;;;6.02;57.33;100852.61;116204;1202;137773;-61
2021/10/26 07:55:14;;;;;;;13.70;8.30;;;;;;;6.14;57.10;100852.20;116419;1201;22369;-61
2021/10/26 07:57:49;;;;;;;18.30;8.90;;;;;;;6.24;57.21;100848.73;116193;1202;137536;-61
2021/10/26 08:00:18;;;;;;;20.40;8.00;;;;;;;6.32;56.78;100843.45;116218;1201;22253;-60
2021/10/26 08:02:52;;;;;;;15.60;7.10;;;;;;;6.44;56.12;100843.66;116331;1202;22707;-61
2021/10/26 08:05:29;;;;;;;13.40;8.20;;;;;;;6.52;55.96;100846.63;116369;1196;137785;-61
2021/10/26 08:07:58;;;;;;;17.00;8.20;;;;;;;6.62;55.98;100844.73;116583;1200;22311;-61
2021/10/26 08:10:27;;;;;;;21.70;8.00;;;;;;;6.70;55.67;100850.94;116319;1201;137817;-61
2021/10/26 08:12:56;;;;;;;14.90;7.10;;;;;;;6.79;55.51;100846.23;116513;1201;23521;-61
2021/10/26 08:15:25;;;;;;;17.70;7.40;;;;;;;6.87;55.01;100845.52;116496;1201;137119;-60
2021/10/26 08:17:53;;;;;;;20.90;7.20;;;;;;;6.94;55.10;100838.59;116664;1201;22396;-61
2021/10/26 08:20:21;;;;;;;21.50;7.50;;;;;;;7.01;54.98;100838.79;116643;1200;23116;-62
2021/10/26 08:22:50;;;;;;;13.10;7.20;;;;;;;7.09;54.50;100836.86;116397;1201;137008;-62
2021/10/26 08:25:27;;;;;;;14.70;7.50;;;;;;;7.15;54.45;100833.09;116579;1201;22232;-61
2021/10/26 08:27:57;;;;;;;13.00;7.20;;;;;;;7.23;54.20;100832.98;116489;1201;138486;-61
2021/10/26 08:30:38;;;;;;;12.20;7.00;;;;;;;7.29;54.22;100832.50;116455;1201;22311;-61
2021/10/26 08:35:49;;;;;;;15.50;8.30;;;;;;;7.47;53.72;100833.31;116366;1201;137110;-61
2021/10/26 08:38:19;;;;;;;12.80;7.30;;;;;;;7.54;53.32;100832.34;116602;1201;22462;-62
2021/10/26 08:41:00;;;;;;;27.90;7.90;;;;;;;7.62;52.80;100825.77;112992;1201;138147;-58
2021/10/26 08:43:28;;;;;;;14.50;7.50;;;;;;;7.68;52.83;100823.93;116314;1201;22940;-58
2021/10/26 08:45:59;;;;;;;13.20;8.10;;;;;;;7.74;52.83;100822.23;116576;1201;139648;-58
2021/10/26 08:48:27;;;;;;;11.30;6.90;;;;;;;7.80;52.46;100830.77;116514;1201;23143;-58
2021/10/26 08:51:14;;;;;;;15.90;6.50;;;;;;;7.87;51.90;100823.54;116626;1201;23157;-58
2021/10/26 08:53:45;;;;;;;18.70;8.00;;;;;;;7.91;51.42;100824.83;116391;1201;138256;-58
2021/10/26 08:56:34;;;;;;;15.00;7.50;;;;;;;7.90;51.41;100828.55;116421;1201;22398;-58
2021/10/26 08:59:21;;;;;;;19.10;8.30;;;;;;;7.91;51.80;100833.39;116591;1201;137054;-58
2021/10/26 09:01:54;;;;;;;15.50;8.10;;;;;;;7.94;51.56;100833.84;116638;1201;22317;-58
2021/10/26 09:04:22;;;;;;;20.20;8.60;;;;;;;7.96;51.59;100831.12;116572;1201;137245;-58
2021/10/26 09:06:53;;;;;;;15.60;8.70;;;;;;;7.98;51.92;100827.12;116297;1202;22466;-58
2021/10/26 09:09:23;;;;;;;16.80;9.40;;;;;;;7.98;51.82;100822.36;116572;1201;22237;-58
2021/10/26 09:17:08;;;;;;;16.10;9.80;;;;;;;8.14;51.53;100815.08;110844;1214;545337;-59
2021/10/26 09:20:03;;;;;;;19.90;9.00;;;;;;;8.14;51.36;100812.77;111890;1197;24079;-59
2021/10/26 09:22:45;;;;;;;23.40;9.90;;;;;;;8.16;51.45;100809.27;111879;1196;136539;-59
2021/10/26 09:25:14;;;;;;;14.10;8.70;;;;;;;8.18;51.18;100809.36;112116;1203;22479;-59
2021/10/26 09:27:43;;;;;;;15.00;8.30;;;;;;;8.21;51.29;100805.48;112351;1201;22560;-59
2021/10/26 09:30:14;;;;;;;13.50;8.70;;;;;;;8.26;51.30;100801.23;111953;1203;137058;-59
2021/10/26 09:32:47;;;;;;;15.00;7.40;;;;;;;8.30;51.28;100799.95;116302;1201;23284;-59
2021/10/26 09:35:19;;;;;;;14.60;7.70;;;;;;;8.35;50.82;100798.66;116580;1201;137408;-59
2021/10/26 09:37:52;;;;;;;22.00;8.50;;;;;;;8.41;50.63;100801.61;116556;1201;23226;-60
2021/10/26 09:40:20;;;;;;;18.00;7.50;;;;;;;8.46;50.45;100794.76;116497;1200;136970;-59
2021/10/26 09:42:49;;;;;;;13.20;7.80;;;;;;;8.50;50.00;100791.66;116694;1187;22794;-59
2021/10/26 09:45:24;;;;;;;16.20;7.80;;;;;;;8.55;49.68;100789.80;116707;1200;22232;-60
2021/10/26 09:47:54;;;;;;;29.00;8.70;;;;;;;8.58;49.62;100784.10;116560;1200;137160;-60
2021/10/26 09:50:22;;;;;;;15.60;7.70;;;;;;;8.61;49.59;100781.88;116587;1201;22346;-60
2021/10/26 09:52:50;;;;;;;12.90;7.60;;;;;;;8.63;49.59;100778.87;116374;1199;137078;-60
2021/10/26 09:55:21;;;;;;;12.10;8.20;;;;;;;8.65;49.24;100777.60;116478;1201;22364;-59
2021/10/26 09:57:52;;;;;;;13.20;7.90;;;;;;;8.66;48.95;100768.86;116481;1200;137298;-60
2021/10/26 10:00:29;;;;;;;13.40;7.70;;;;;;;8.67;49.08;100768.13;116671;1200;24514;-59
2021/10/26 10:03:17;;;;;;;14.00;7.80;;;;;;;8.68;48.85;100764.87;116665;1200;22336;-59
2021/10/26 10:05:56;;;;;;;14.30;7.20;;;;;;;8.72;48.94;100760.44;116665;1199;136668;-59
2021/10/26 10:08:28;;;;;;;16.00;7.50;;;;;;;8.75;48.66;100755.33;116804;1199;24698;-59
2021/10/26 10:11:06;;;;;;;15.30;7.60;;;;;;;8.78;48.47;100749.34;116525;1200;136997;-59
2021/10/26 10:13:37;;;;;;;14.80;6.80;;;;;;;8.82;48.58;100751.05;116781;1199;22261;-59
2021/10/26 10:16:09;;;;;;;14.70;6.90;;;;;;;8.85;48.02;100740.52;116680;1199;137944;-59
2021/10/26 10:18:37;;;;;;;11.00;6.80;;;;;;;8.85;48.04;100736.71;116569;1200;22233;-60
2021/10/26 10:21:08;;;;;;;10.10;6.90;;;;;;;8.86;48.03;100731.27;116555;1200;22360;-59
2021/10/26 10:23:39;;;;;;;14.50;7.60;;;;;;;8.89;47.78;100732.47;116456;1200;136813;-59
2021/10/26 10:26:07;;;;;;;20.40;7.30;;;;;;;8.89;47.88;100726.23;116556;1200;22361;-59
2021/10/26 10:28:39;;;;;;;11.70;8.00;;;;;;;8.89;47.78;100725.27;116568;1200;137091;-60
2021/10/26 10:31:08;;;;;;;11.10;7.10;;;;;;;8.89;47.74;100721.10;116443;1196;22423;-59
2021/10/26 10:33:36;;;;;;;12.80;7.40;;;;;;;8.92;47.86;100711.89;116644;1199;23100;-59
2021/10/26 10:36:07;;;;;;;18.00;7.30;;;;;;;8.94;47.87;100708.48;116447;1199;137992;-59
2021/10/26 10:38:36;;;;;;;17.90;7.30;;;;;;;8.97;48.26;100703.39;116597;1200;23260;-60
2021/10/26 10:41:24;;;;;;;14.40;6.20;;;;;;;9.00;48.00;100701.42;116507;1200;137722;-62
2021/10/26 10:43:52;;;;;;;12.20;5.70;;;;;;;9.07;47.18;100698.34;116588;1200;22111;-62
2021/10/26 10:46:43;;;;;;;11.30;5.80;;;;;;;9.11;46.93;100694.94;116512;1200;137881;-62
2021/10/26 10:49:41;;;;;;;10.90;5.20;;;;;;;9.17;46.86;100690.14;116630;1200;23096;-62
2021/10/26 10:52:19;;;;;;;14.10;5.40;;;;;;;9.23;46.73;100688.01;116487;1199;136955;-62
2021/10/26 10:54:53;;;;;;;11.80;6.00;;;;;;;9.27;46.22;100684.11;116733;1193;22421;-62
2021/10/26 10:57:32;;;;;;;14.80;5.60;;;;;;;9.32;45.89;100681.08;116631;1201;22406;-62
2021/10/26 11:00:02;;;;;;;20.90;5.80;;;;;;;9.35;45.61;100678.96;116438;1200;137097;-62
2021/10/26 11:02:36;;;;;;;10.30;6.00;;;;;;;9.39;45.80;100675.36;116669;1200;22310;-62
2021/10/26 11:05:05;;;;;;;10.70;6.30;;;;;;;9.42;46.03;100674.11;116389;1193;138114;-62
2021/10/26 11:07:42;;;;;;;14.00;6.40;;;;;;;9.45;45.88;100667.86;116543;1200;22312;-62
2021/10/26 11:10:13;;;;;;;9.00;5.40;;;;;;;9.47;46.00;100665.21;116556;1200;137027;-62
2021/10/26 11:12:46;;;;;;;9.90;6.50;;;;;;;9.48;45.90;100660.52;116583;1200;22489;-63
2021/10/26 11:15:20;;;;;;;12.30;6.80;;;;;;;9.53;46.25;100660.05;116639;1200;23063;-62
2021/10/26 11:17:50;;;;;;;11.70;7.60;;;;;;;9.55;46.28;100659.69;116483;1200;137430;-62
2021/10/26 11:20:29;;;;;;;12.20;6.40;;;;;;;9.57;46.26;100659.96;116620;1200;22347;-62
2021/10/26 11:23:04;;;;;;;12.20;6.80;;;;;;;9.56;46.20;100652.65;116532;1200;137927;-62
2021/10/26 11:25:42;;;;;;;22.30;8.10;;;;;;;9.56;46.19;100648.13;116603;1193;23089;-62
2021/10/26 11:28:12;;;;;;;10.20;5.70;;;;;;;9.57;46.40;100644.77;116552;1200;139073;-62
2021/10/26 11:30:44;;;;;;;9.30;5.90;;;;;;;9.59;45.73;100641.73;116687;1201;22254;-62
2021/10/26 11:33:17;;;;;;;12.10;5.70;;;;;;;9.63;45.45;100638.12;116548;1201;22312;-62
2021/10/26 11:36:07;;;;;;;11.20;5.20;;;;;;;9.67;45.25;100643.29;116546;1200;137529;-62
2021/10/26 11:38:46;;;;;;;9.90;5.50;;;;;;;9.70;45.02;100637.94;116716;1200;23240;-62
2021/10/26 11:41:17;;;;;;;11.10;5.20;;;;;;;9.73;45.04;100636.45;116500;1193;136938;-62
2021/10/26 11:43:49;;;;;;;11.90;5.60;;;;;;;9.74;44.98;100630.45;116623;1200;22312;-62
2021/10/26 11:46:25;;;;;;;12.50;6.20;;;;;;;9.75;44.73;100633.16;116526;1200;138644;-62